Time;durP1;ratioP1;P1;durP2;ratioP2;P2;SDS_P1;SDS_P2;PMS_P1;PMS_P2;Temp;Humidity;BMP_temperature;BMP_pressure;BME280_temperature;BME280_humidity;BME280_pressure;Samples;Min_cycle;Max_cycle;Signal;HPM_P1;HPM_P2
2021/11/14 00:01:56;;;;;;;21.20;10.40;;;;;;;8.07;54.63;101876.09;5024628;28;20325;-70
2021/11/14 00:04:21;;;;;;;24.00;11.18;;;;;;;7.96;55.16;101878.88;5006143;28;20041;-69
2021/11/14 00:06:47;;;;;;;20.75;9.98;;;;;;;8.06;54.64;101877.00;5023110;28;20029;-69
2021/11/14 00:09:13;;;;;;;20.38;9.35;;;;;;;7.86;54.88;101875.50;5006132;28;20036;-68
2021/11/14 00:11:39;;;;;;;15.63;8.13;;;;;;;7.92;55.07;101885.00;5022552;28;20206;-68
2021/11/14 00:14:05;;;;;;;16.65;8.93;;;;;;;8.02;54.65;101876.16;5024189;28;20437;-71
2021/11/14 00:16:31;;;;;;;21.70;10.35;;;;;;;7.94;54.71;101883.25;5006012;28;21422;-67
2021/11/14 00:18:58;;;;;;;19.70;8.73;;;;;;;7.96;54.75;101889.28;5022999;28;20048;-71
2021/11/14 00:21:26;;;;;;;18.63;8.60;;;;;;;8.03;54.15;101882.25;4997196;28;20041;-73
2021/11/14 00:23:52;;;;;;;15.25;9.13;;;;;;;8.03;54.74;101888.31;5005740;28;20033;-74
2021/11/14 00:26:18;;;;;;;26.45;9.10;;;;;;;8.05;54.75;101886.56;5023807;28;20112;-74
2021/11/14 00:28:44;;;;;;;19.70;9.32;;;;;;;8.00;54.43;101897.91;5023585;28;20140;-72
2021/11/14 00:31:13;;;;;;;16.63;9.05;;;;;;;8.08;53.83;101889.09;5006910;28;20037;-73
2021/11/14 00:33:43;;;;;;;18.90;8.60;;;;;;;8.06;54.25;101903.88;5021687;28;20099;-73
2021/11/14 00:36:16;;;;;;;18.77;8.95;;;;;;;8.08;54.02;101894.31;5013973;28;20114;-74
2021/11/14 00:38:42;;;;;;;17.65;9.55;;;;;;;8.02;54.38;101906.56;5006606;28;20052;-73
2021/11/14 00:41:08;;;;;;;26.65;9.32;;;;;;;7.96;54.49;101912.72;5024563;28;20872;-73
2021/11/14 00:43:34;;;;;;;17.05;8.55;;;;;;;7.82;54.46;101909.41;5023905;28;20045;-75
2021/11/14 00:46:02;;;;;;;15.10;8.40;;;;;;;7.99;54.43;101907.47;4999313;28;20517;-73
2021/11/14 00:48:27;;;;;;;20.85;9.65;;;;;;;8.03;54.25;101918.72;5004196;28;20049;-73
2021/11/14 00:50:53;;;;;;;16.65;9.15;;;;;;;8.12;54.42;101919.44;5024755;28;20548;-73
2021/11/14 00:53:19;;;;;;;16.50;9.10;;;;;;;8.10;53.79;101918.59;5002668;28;20037;-73
2021/11/14 00:55:46;;;;;;;17.27;8.70;;;;;;;8.10;54.16;101929.00;5024801;28;20033;-73
2021/11/14 00:58:12;;;;;;;16.08;8.85;;;;;;;8.12;54.19;101926.41;5022398;28;20038;-73
2021/11/14 01:00:38;;;;;;;19.75;9.80;;;;;;;8.03;53.71;101935.19;5006336;28;20477;-73
2021/11/14 01:03:06;;;;;;;21.58;9.50;;;;;;;7.93;53.99;101938.75;4995789;28;20037;-74
2021/11/14 01:05:34;;;;;;;18.80;9.50;;;;;;;7.94;53.89;101935.31;5023573;28;20081;-66
2021/11/14 01:08:02;;;;;;;19.25;9.93;;;;;;;7.93;53.90;101941.38;5003833;28;20796;-68
2021/11/14 01:10:34;;;;;;;17.75;10.13;;;;;;;7.96;53.74;101943.97;5022590;28;20048;-66
2021/11/14 01:12:59;;;;;;;17.75;9.32;;;;;;;7.91;54.20;101948.34;5021413;28;20132;-67
2021/11/14 01:15:25;;;;;;;20.67;10.30;;;;;;;7.96;53.83;101954.38;5021969;28;20120;-67
2021/11/14 01:17:51;;;;;;;23.42;10.18;;;;;;;7.85;54.06;101956.25;5021092;28;20033;-71
2021/11/14 01:20:21;;;;;;;20.33;10.70;;;;;;;7.85;53.98;101961.44;5022370;28;20424;-70
2021/11/14 01:22:49;;;;;;;22.02;10.40;;;;;;;7.84;54.02;101959.69;4993708;28;20128;-68
2021/11/14 01:25:16;;;;;;;19.05;9.45;;;;;;;7.91;53.94;101963.94;5022052;28;20041;-69
2021/11/14 01:27:41;;;;;;;19.10;9.75;;;;;;;7.97;53.80;101963.03;5021594;28;20132;-67
2021/11/14 01:30:14;;;;;;;17.85;8.95;;;;;;;7.90;53.67;101965.69;5022047;28;20446;-68
2021/11/14 01:32:41;;;;;;;18.85;8.27;;;;;;;7.90;53.80;101970.91;5022081;28;20405;-68
2021/11/14 01:35:08;;;;;;;22.20;11.02;;;;;;;7.90;54.00;101970.91;5002156;28;20034;-69
2021/11/14 01:37:33;;;;;;;17.73;9.48;;;;;;;7.88;53.87;101977.00;5021900;28;20498;-73
2021/11/14 01:39:59;;;;;;;17.73;10.30;;;;;;;7.68;54.26;101967.66;5022835;28;20040;-75
2021/11/14 01:42:25;;;;;;;17.27;8.57;;;;;;;7.82;53.70;101977.94;5004140;28;20095;-73
2021/11/14 01:44:50;;;;;;;18.02;9.32;;;;;;;7.86;53.91;101981.38;5005982;28;20640;-73
2021/11/14 01:47:16;;;;;;;17.65;9.52;;;;;;;7.79;54.01;101982.31;5012036;28;20048;-69
2021/11/14 01:49:42;;;;;;;18.15;9.15;;;;;;;7.81;53.89;101981.41;5021678;28;20486;-71
2021/11/14 01:52:20;;;;;;;15.23;8.30;;;;;;;7.87;53.63;101985.69;5019946;28;20056;-70
2021/11/14 01:54:46;;;;;;;19.60;8.73;;;;;;;7.83;53.81;101978.81;5004951;28;20035;-75
2021/11/14 01:57:11;;;;;;;17.02;8.85;;;;;;;7.65;54.23;101988.53;5022853;28;20037;-70
2021/11/14 01:59:37;;;;;;;16.75;8.30;;;;;;;7.86;53.62;101989.19;5023756;28;20049;-70
2021/11/14 02:02:03;;;;;;;17.45;8.45;;;;;;;7.67;53.99;101994.59;5001641;28;20260;-70
2021/11/14 02:04:29;;;;;;;20.25;9.48;;;;;;;7.88;53.30;102003.03;5021948;28;20501;-70
2021/11/14 02:06:54;;;;;;;23.05;10.20;;;;;;;7.86;53.70;101999.59;5019691;28;20156;-69
2021/11/14 02:09:20;;;;;;;22.67;10.45;;;;;;;7.85;53.61;102006.53;5008468;28;20034;-71
2021/11/14 02:11:46;;;;;;;19.27;8.90;;;;;;;7.89;53.27;102004.75;5025227;28;20048;-69
2021/11/14 02:14:11;;;;;;;24.90;10.25;;;;;;;7.84;53.80;102010.00;5026483;28;20454;-70
2021/11/14 02:16:37;;;;;;;26.30;11.88;;;;;;;7.80;53.88;102007.47;5007883;28;21589;-70
2021/11/14 02:19:03;;;;;;;23.63;9.70;;;;;;;7.76;54.03;102010.97;5026703;28;20038;-70
2021/11/14 02:21:29;;;;;;;23.05;11.30;;;;;;;7.76;53.79;102013.56;5025158;28;20611;-70
2021/11/14 02:23:55;;;;;;;27.48;11.10;;;;;;;7.92;53.42;102013.41;5035455;23;20054;-67
2021/11/14 02:26:23;;;;;;;29.60;11.88;;;;;;;7.93;53.55;102019.47;5009474;28;20543;-64
2021/11/14 02:28:51;;;;;;;27.77;13.07;;;;;;;7.91;53.51;102024.72;5008605;28;20049;-65
2021/11/14 02:31:17;;;;;;;32.53;13.70;;;;;;;7.69;54.02;102024.06;4971511;28;20030;-70
2021/11/14 02:33:43;;;;;;;29.65;14.23;;;;;;;7.57;54.03;102028.50;4980578;28;20050;-69
2021/11/14 02:36:10;;;;;;;33.25;14.68;;;;;;;7.68;53.76;102024.91;5001719;28;20029;-70
2021/11/14 02:38:37;;;;;;;42.97;15.55;;;;;;;7.77;53.85;102026.56;5013326;28;20141;-70
2021/11/14 02:41:05;;;;;;;40.97;16.95;;;;;;;7.73;54.15;102024.88;4998364;28;20475;-66
2021/11/14 02:43:31;;;;;;;39.97;16.95;;;;;;;7.60;53.97;102029.34;4978928;28;20050;-68
2021/11/14 02:45:57;;;;;;;36.03;16.10;;;;;;;7.75;53.99;102028.31;4999411;28;20036;-68
2021/11/14 02:48:22;;;;;;;44.97;17.55;;;;;;;7.66;54.27;102031.88;4997670;28;20502;-68
2021/11/14 02:50:50;;;;;;;42.20;17.25;;;;;;;7.73;54.05;102041.38;4997021;28;20034;-67
2021/11/14 02:53:16;;;;;;;45.50;18.48;;;;;;;7.62;54.04;102043.19;4994490;28;20053;-66
2021/11/14 02:55:43;;;;;;;49.95;18.65;;;;;;;7.66;54.25;102044.88;4988752;28;20029;-68
2021/11/14 02:58:09;;;;;;;53.53;19.95;;;;;;;7.66;54.07;102044.88;4977627;28;20046;-68
2021/11/14 03:00:42;;;;;;;46.38;19.17;;;;;;;7.75;53.84;102038.75;4997210;28;20648;-68
2021/11/14 03:03:08;;;;;;;44.75;19.05;;;;;;;7.78;53.85;102043.03;4998047;28;20076;-67
2021/11/14 03:05:35;;;;;;;56.38;19.45;;;;;;;7.62;54.43;102037.13;4996829;28;20041;-67
2021/11/14 03:08:01;;;;;;;47.42;17.10;;;;;;;7.70;54.33;102041.38;4983383;28;20054;-66
2021/11/14 03:10:30;;;;;;;52.97;19.85;;;;;;;7.69;54.50;102044.88;4997082;28;20050;-67
2021/11/14 03:13:16;;;;;;;46.03;18.52;;;;;;;7.86;53.93;102046.44;4995355;28;20045;-66
2021/11/14 03:15:46;;;;;;;47.20;17.45;;;;;;;7.69;54.11;102042.28;4994615;28;20026;-66
2021/11/14 03:18:13;;;;;;;48.92;19.38;;;;;;;7.72;54.29;102043.97;4977776;28;20418;-65
2021/11/14 03:20:41;;;;;;;46.70;17.35;;;;;;;7.80;54.08;102049.09;4997514;28;20040;-66
2021/11/14 03:23:07;;;;;;;46.45;17.45;;;;;;;7.86;53.79;102062.06;4995895;28;20463;-68
2021/11/14 03:25:34;;;;;;;50.67;19.45;;;;;;;7.79;54.19;102055.19;4998940;28;20076;-65
2021/11/14 03:28:00;;;;;;;47.00;18.75;;;;;;;7.74;53.58;102052.66;4996930;28;20459;-65
2021/11/14 03:30:27;;;;;;;59.13;20.23;;;;;;;7.66;54.00;102060.50;4998319;28;20085;-65
2021/11/14 03:32:52;;;;;;;60.30;21.27;;;;;;;7.57;54.37;102060.59;4997529;28;20092;-66
2021/11/14 03:35:20;;;;;;;53.03;19.85;;;;;;;7.60;54.55;102060.56;4998014;28;20426;-66
2021/11/14 03:37:46;;;;;;;49.63;20.13;;;;;;;7.59;54.52;102068.38;4997182;28;20049;-65
2021/11/14 03:40:14;;;;;;;50.33;19.25;;;;;;;7.59;54.17;102064.03;4997925;28;20041;-71
2021/11/14 03:42:40;;;;;;;48.22;18.38;;;;;;;7.63;53.98;102070.94;4994824;28;20050;-71
2021/11/14 03:45:06;;;;;;;43.00;17.45;;;;;;;7.72;53.72;102072.63;4996147;28;20077;-71
2021/11/14 03:47:32;;;;;;;41.80;17.67;;;;;;;7.50;54.53;102074.50;4996203;28;20057;-70
2021/11/14 03:49:58;;;;;;;41.28;16.13;;;;;;;7.74;53.99;102074.31;4986184;28;20030;-74
2021/11/14 03:52:24;;;;;;;42.97;17.75;;;;;;;7.69;53.66;102073.50;4987484;28;20466;-71
2021/11/14 03:54:49;;;;;;;33.58;14.70;;;;;;;7.66;53.85;102086.53;4987332;28;20537;-65
2021/11/14 03:57:15;;;;;;;41.47;15.20;;;;;;;7.64;53.91;102087.41;4996221;28;20052;-65
2021/11/14 03:59:40;;;;;;;39.33;15.00;;;;;;;7.62;53.65;102090.03;4998171;28;20510;-65
2021/11/14 04:02:06;;;;;;;40.00;14.88;;;;;;;7.43;54.32;102093.63;4996175;28;20042;-66
2021/11/14 04:04:31;;;;;;;36.85;15.65;;;;;;;7.64;53.78;102101.28;4977389;28;20492;-68
2021/11/14 04:06:57;;;;;;;32.67;15.25;;;;;;;7.70;53.61;102103.84;4995052;28;20057;-67
2021/11/14 04:09:23;;;;;;;42.05;16.75;;;;;;;7.69;53.87;102114.25;4995587;28;20545;-66
2021/11/14 04:11:49;;;;;;;40.22;15.60;;;;;;;7.66;53.67;102117.75;4979660;28;20030;-66
2021/11/14 04:14:15;;;;;;;44.67;16.80;;;;;;;7.72;54.00;102122.06;4996284;28;20046;-65
2021/11/14 04:16:40;;;;;;;46.08;16.70;;;;;;;7.66;53.99;102122.94;4978396;28;20101;-66
2021/11/14 04:19:06;;;;;;;41.92;18.02;;;;;;;7.65;54.05;102121.25;4998597;28;20057;-65
2021/11/14 04:21:32;;;;;;;32.60;14.63;;;;;;;7.65;53.69;102129.03;4995306;28;20041;-65
2021/11/14 04:23:57;;;;;;;37.60;16.30;;;;;;;7.72;53.43;102133.31;4996515;28;20128;-69
2021/11/14 04:26:23;;;;;;;39.92;16.63;;;;;;;7.60;54.02;102135.16;4994547;28;20247;-64
2021/11/14 04:28:49;;;;;;;35.13;15.88;;;;;;;7.65;54.00;102141.19;4996157;28;20038;-65
2021/11/14 04:31:15;;;;;;;34.83;15.52;;;;;;;7.61;53.95;102142.09;4994953;28;20037;-65
2021/11/14 04:33:41;;;;;;;34.90;16.00;;;;;;;7.63;53.55;102143.81;4993090;28;20049;-64
2021/11/14 04:36:07;;;;;;;40.55;16.27;;;;;;;7.65;53.79;102147.25;4997684;28;20077;-64
2021/11/14 04:38:35;;;;;;;34.60;15.20;;;;;;;7.71;53.62;102154.16;4991632;28;20076;-65
2021/11/14 04:41:02;;;;;;;41.17;16.13;;;;;;;7.72;53.22;102154.16;4994323;28;20085;-64
2021/11/14 04:43:28;;;;;;;34.63;14.50;;;;;;;7.64;53.54;102155.06;4978710;28;20065;-65
2021/11/14 04:45:54;;;;;;;31.70;14.00;;;;;;;7.79;52.79;102151.50;4997027;28;20422;-64
2021/11/14 04:48:23;;;;;;;36.38;15.38;;;;;;;7.64;53.50;102161.13;4995526;28;20072;-64
2021/11/14 04:50:50;;;;;;;36.45;15.88;;;;;;;7.58;53.63;102156.00;4998573;28;20044;-65
2021/11/14 04:53:16;;;;;;;33.53;14.80;;;;;;;7.58;53.47;102166.41;4996333;28;20621;-65
2021/11/14 04:55:42;;;;;;;32.95;13.73;;;;;;;7.56;53.26;102170.75;4996121;28;20091;-67
2021/11/14 04:58:08;;;;;;;32.80;15.35;;;;;;;7.53;53.59;102162.91;4976768;28;20157;-67
2021/11/14 05:00:42;;;;;;;38.67;14.23;;;;;;;7.49;53.30;102166.44;4981557;28;20087;-67
2021/11/14 05:03:09;;;;;;;30.05;14.77;;;;;;;7.55;53.79;102166.41;4996389;28;20475;-68
2021/11/14 05:05:36;;;;;;;30.15;14.95;;;;;;;7.53;53.37;102175.91;4974926;28;20495;-67
2021/11/14 05:08:04;;;;;;;31.98;13.55;;;;;;;7.60;53.08;102171.56;4991811;28;20046;-67
2021/11/14 05:10:30;;;;;;;33.92;15.98;;;;;;;7.61;53.07;102176.78;4993646;28;20046;-66
2021/11/14 05:12:55;;;;;;;34.90;16.33;;;;;;;7.57;53.22;102175.06;4996126;28;20040;-66
2021/11/14 05:15:21;;;;;;;33.30;14.25;;;;;;;7.61;53.16;102170.72;4984098;28;20038;-67
2021/11/14 05:17:46;;;;;;;35.05;15.27;;;;;;;7.56;53.42;102180.28;4981943;28;20573;-66
2021/11/14 05:20:12;;;;;;;36.95;15.50;;;;;;;7.61;53.30;102181.97;4994151;28;20077;-66
2021/11/14 05:22:38;;;;;;;30.27;14.75;;;;;;;7.51;53.44;102188.97;4994088;28;20046;-66
2021/11/14 05:25:05;;;;;;;36.80;14.85;;;;;;;7.56;53.07;102182.88;4976968;28;20057;-67
2021/11/14 05:27:31;;;;;;;32.08;14.75;;;;;;;7.51;53.22;102182.88;4996504;28;20441;-66
2021/11/14 05:29:56;;;;;;;27.77;12.52;;;;;;;7.49;53.40;102184.66;4970243;28;20041;-66
2021/11/14 05:32:22;;;;;;;38.53;14.70;;;;;;;7.51;53.54;102186.34;4992967;28;20056;-66
2021/11/14 05:34:47;;;;;;;29.73;12.73;;;;;;;7.57;53.34;102188.06;4993625;28;20189;-66
2021/11/14 05:37:13;;;;;;;32.28;14.13;;;;;;;7.63;53.26;102190.66;4994869;28;20037;-67
2021/11/14 05:39:38;;;;;;;37.22;13.63;;;;;;;7.61;53.36;102195.00;4994959;28;20030;-66
2021/11/14 05:42:04;;;;;;;30.08;12.90;;;;;;;7.76;52.77;102193.16;4992144;28;20407;-67
2021/11/14 05:44:29;;;;;;;29.40;11.68;;;;;;;7.77;52.94;102206.16;4992970;28;20511;-67
2021/11/14 05:46:55;;;;;;;33.25;13.30;;;;;;;7.65;53.21;102208.84;4993353;28;20057;-66
2021/11/14 05:49:21;;;;;;;33.70;13.70;;;;;;;7.63;53.11;102214.06;4992819;28;20096;-67
2021/11/14 05:51:46;;;;;;;33.10;13.95;;;;;;;7.59;53.44;102217.56;4994883;28;20120;-67
2021/11/14 05:54:11;;;;;;;32.53;11.40;;;;;;;7.46;53.53;102229.72;4994166;28;20514;-66
2021/11/14 05:56:37;;;;;;;23.02;11.13;;;;;;;7.64;53.05;102226.19;4993875;28;20449;-68
2021/11/14 06:01:56;;;;;;;22.33;10.73;;;;;;;7.52;53.55;102232.31;4994719;28;20052;-67
2021/11/14 06:06:50;;;;;;;26.38;11.77;;;;;;;7.39;53.53;102235.84;4992996;28;20048;-68
2021/11/14 06:09:15;;;;;;;24.17;10.77;;;;;;;7.43;52.98;102234.97;4994148;28;20498;-67
2021/11/14 06:11:41;;;;;;;29.25;10.55;;;;;;;7.21;53.66;102242.00;4993886;28;20038;-67
2021/11/14 06:14:07;;;;;;;26.55;11.93;;;;;;;7.43;53.14;102245.38;4996205;28;20034;-66
2021/11/14 06:16:32;;;;;;;27.95;11.82;;;;;;;7.48;52.81;102250.53;4992724;28;20072;-66
2021/11/14 06:18:58;;;;;;;29.13;11.88;;;;;;;7.48;52.74;102260.94;4995257;28;20034;-69
2021/11/14 06:21:24;;;;;;;25.45;10.85;;;;;;;7.49;52.85;102262.69;4994916;28;20411;-67
2021/11/14 06:23:51;;;;;;;25.98;10.68;;;;;;;7.43;53.12;102266.19;4995591;28;20564;-68
2021/11/14 06:26:17;;;;;;;26.65;11.00;;;;;;;7.40;53.25;102270.50;4991352;28;20053;-67
2021/11/14 06:28:42;;;;;;;26.55;12.82;;;;;;;7.44;52.79;102277.44;4994945;28;20042;-66
2021/11/14 06:31:08;;;;;;;29.30;10.98;;;;;;;7.45;53.12;102281.78;4993771;28;20038;-68
2021/11/14 06:33:34;;;;;;;28.00;11.25;;;;;;;7.47;53.06;102290.44;4980551;28;20065;-68
2021/11/14 06:35:59;;;;;;;30.33;11.93;;;;;;;7.49;53.01;102294.78;4994033;28;20048;-68
2021/11/14 06:38:25;;;;;;;31.58;11.73;;;;;;;7.56;52.91;102308.66;4992601;28;20136;-68
2021/11/14 06:40:50;;;;;;;27.77;12.50;;;;;;;7.39;53.34;102305.22;4992853;28;20037;-68
2021/11/14 06:43:16;;;;;;;28.08;12.88;;;;;;;7.44;53.38;102308.66;4979119;28;20037;-67
2021/11/14 06:45:42;;;;;;;27.48;11.45;;;;;;;7.48;53.23;102319.03;4994269;28;20053;-67
2021/11/14 06:48:08;;;;;;;25.08;11.85;;;;;;;7.53;53.08;102319.03;4993483;28;20044;-67
2021/11/14 06:50:33;;;;;;;28.17;12.52;;;;;;;7.49;52.86;102322.53;4977870;28;20072;-67
2021/11/14 06:52:59;;;;;;;31.95;11.95;;;;;;;7.61;53.42;102327.69;4993557;28;20084;-67
2021/11/14 06:55:25;;;;;;;32.35;11.43;;;;;;;7.36;53.41;102329.50;4998068;28;20145;-68
2021/11/14 06:57:50;;;;;;;27.85;11.43;;;;;;;7.48;53.40;102337.25;4996584;28;20054;-67
2021/11/14 07:00:20;;;;;;;29.63;11.35;;;;;;;7.56;52.79;102339.88;4982259;28;20049;-68
2021/11/14 07:02:46;;;;;;;26.77;11.48;;;;;;;7.53;52.79;102347.63;4996386;28;20058;-69
2021/11/14 07:05:12;;;;;;;30.83;11.38;;;;;;;7.50;52.95;102342.47;4985392;28;20033;-67
2021/11/14 07:07:38;;;;;;;28.77;11.95;;;;;;;7.44;53.22;102350.28;4987207;28;20058;-67
2021/11/14 07:10:06;;;;;;;28.58;10.65;;;;;;;7.48;53.04;102352.84;4997384;28;20033;-67
2021/11/14 07:12:32;;;;;;;27.83;12.18;;;;;;;7.62;52.91;102355.44;4996949;28;20058;-67
2021/11/14 07:14:57;;;;;;;31.95;12.02;;;;;;;7.56;52.87;102359.78;4998107;28;20089;-66
2021/11/14 07:17:25;;;;;;;29.15;12.13;;;;;;;7.52;53.25;102364.13;4977946;28;20049;-67
2021/11/14 07:19:50;;;;;;;29.13;12.25;;;;;;;7.53;53.10;102366.75;4977195;28;20038;-67
2021/11/14 07:22:16;;;;;;;28.73;12.52;;;;;;;7.58;52.85;102369.34;4998020;28;20465;-68
2021/11/14 07:24:42;;;;;;;31.33;12.68;;;;;;;7.48;53.38;102378.88;4997232;28;20471;-67
2021/11/14 07:27:07;;;;;;;30.95;11.27;;;;;;;7.37;53.55;102388.44;4994737;28;20125;-68
2021/11/14 07:29:33;;;;;;;36.95;13.57;;;;;;;7.52;53.05;102384.94;4998583;28;20042;-68
2021/11/14 07:31:58;;;;;;;31.13;12.88;;;;;;;7.65;53.13;102397.09;4996439;28;20480;-68
2021/11/14 07:34:24;;;;;;;37.47;12.40;;;;;;;7.62;53.30;102394.47;4998043;28;20133;-68
2021/11/14 07:36:49;;;;;;;38.67;14.00;;;;;;;7.70;52.87;102390.13;4995762;28;20030;-68
2021/11/14 07:39:15;;;;;;;35.55;12.48;;;;;;;7.74;52.73;102386.63;5000915;28;20037;-67
2021/11/14 07:41:40;;;;;;;33.97;13.13;;;;;;;7.81;52.46;102404.84;4999836;28;20026;-69
2021/11/14 07:44:06;;;;;;;37.75;13.07;;;;;;;7.80;52.90;102405.69;4997959;28;20034;-68
2021/11/14 07:46:31;;;;;;;34.63;13.43;;;;;;;7.86;52.66;102409.13;4995932;28;20038;-68
2021/11/14 07:48:57;;;;;;;38.15;12.23;;;;;;;7.90;52.80;102412.59;4996949;28;20042;-68
2021/11/14 07:51:23;;;;;;;41.88;14.73;;;;;;;7.85;52.54;102407.41;4994760;28;20041;-68
2021/11/14 07:53:49;;;;;;;36.50;13.25;;;;;;;7.94;52.49;102411.72;4997997;28;20081;-68
2021/11/14 07:56:14;;;;;;;42.17;14.65;;;;;;;7.77;52.68;102416.13;4978623;28;20073;-67
2021/11/14 07:58:41;;;;;;;35.90;13.65;;;;;;;7.83;52.91;102418.72;4984651;28;20129;-67
2021/11/14 08:01:06;;;;;;;40.72;15.60;;;;;;;7.80;53.16;102418.72;4994087;28;20049;-68
2021/11/14 08:03:32;;;;;;;35.38;14.23;;;;;;;7.81;52.88;102423.06;4979359;28;20057;-68
2021/11/14 08:06:03;;;;;;;38.65;13.15;;;;;;;7.93;52.61;102428.19;4991998;28;20544;-69
2021/11/14 08:08:28;;;;;;;49.55;14.60;;;;;;;7.93;52.60;102430.81;4997591;28;20041;-68
2021/11/14 08:10:54;;;;;;;47.70;16.15;;;;;;;7.91;52.63;102440.34;4977339;28;20038;-67
2021/11/14 08:13:20;;;;;;;40.10;15.73;;;;;;;7.92;52.57;102435.16;4976083;28;20223;-70
2021/11/14 08:15:46;;;;;;;45.20;16.25;;;;;;;8.00;52.41;102437.72;4979438;28;20060;-70
2021/11/14 08:18:12;;;;;;;53.47;16.88;;;;;;;7.88;52.93;102436.03;4994434;28;20126;-68
2021/11/14 08:20:38;;;;;;;47.95;16.35;;;;;;;7.89;52.95;102435.19;4980447;28;20509;-67
2021/11/14 08:23:05;;;;;;;48.00;16.40;;;;;;;7.94;52.58;102438.63;4995334;28;20160;-67
2021/11/14 08:25:30;;;;;;;54.95;15.50;;;;;;;8.03;52.25;102435.13;4964476;28;20124;-67
2021/11/14 08:27:57;;;;;;;50.42;17.50;;;;;;;8.07;52.55;102442.06;4999321;28;20232;-67
2021/11/14 08:30:23;;;;;;;48.88;16.20;;;;;;;8.08;52.70;102448.13;4998263;28;20042;-67
2021/11/14 08:32:50;;;;;;;55.05;18.00;;;;;;;7.98;52.47;102452.50;4996174;28;20558;-67
2021/11/14 08:35:17;;;;;;;40.00;14.95;;;;;;;7.97;52.49;102455.97;4996700;28;20113;-67
2021/11/14 08:37:43;;;;;;;46.30;17.33;;;;;;;8.03;52.77;102455.94;4992165;28;20046;-68
2021/11/14 08:40:10;;;;;;;53.20;16.38;;;;;;;8.04;52.32;102454.19;4998951;28;20025;-67
2021/11/14 08:42:37;;;;;;;43.00;16.92;;;;;;;7.91;52.69;102455.97;4997349;28;20433;-67
2021/11/14 08:45:05;;;;;;;52.95;16.40;;;;;;;7.91;52.90;102461.19;4994757;28;20038;-66
2021/11/14 08:47:31;;;;;;;54.10;18.88;;;;;;;7.98;52.69;102460.31;4995645;28;20044;-66
2021/11/14 08:49:57;;;;;;;56.58;16.25;;;;;;;8.01;52.49;102470.72;5008162;28;20010;-66
2021/11/14 08:52:22;;;;;;;58.20;17.55;;;;;;;7.93;52.47;102475.94;5002337;28;20478;-67
2021/11/14 08:54:48;;;;;;;50.03;15.98;;;;;;;8.08;52.17;102474.16;4997506;28;20036;-67
2021/11/14 08:57:17;;;;;;;44.25;15.88;;;;;;;8.15;51.91;102479.31;5013347;28;20054;-66
2021/11/14 08:59:45;;;;;;;56.75;18.65;;;;;;;8.24;52.18;102482.75;5012427;28;20025;-67
2021/11/14 09:02:11;;;;;;;46.67;14.98;;;;;;;8.18;51.91;102491.47;4995659;28;20048;-66
2021/11/14 09:04:37;;;;;;;51.42;16.50;;;;;;;8.22;51.80;102493.19;5013591;28;20038;-67
2021/11/14 09:07:04;;;;;;;49.00;17.00;;;;;;;8.22;51.97;102487.97;5010396;28;20065;-67
2021/11/14 09:09:30;;;;;;;54.55;17.30;;;;;;;8.04;52.59;102494.13;5012958;28;20096;-67
2021/11/14 09:11:55;;;;;;;51.55;17.30;;;;;;;8.28;52.11;102495.78;4995100;28;20046;-67
2021/11/14 09:14:22;;;;;;;46.10;14.60;;;;;;;8.41;51.93;102493.13;4993507;28;20034;-66
2021/11/14 09:16:51;;;;;;;50.67;19.02;;;;;;;8.52;51.08;102497.41;4975927;28;20052;-68
2021/11/14 09:19:17;;;;;;;55.22;17.15;;;;;;;8.67;51.27;102498.16;4995082;28;20091;-68
2021/11/14 09:21:43;;;;;;;56.28;17.73;;;;;;;8.68;51.13;102494.69;4994267;28;20602;-67
2021/11/14 09:24:09;;;;;;;46.67;15.88;;;;;;;8.90;51.17;102498.94;4993292;28;20061;-67
2021/11/14 09:26:36;;;;;;;45.38;16.58;;;;;;;8.91;50.94;102505.00;4993897;28;20065;-66
2021/11/14 09:29:03;;;;;;;55.30;15.88;;;;;;;8.94;50.33;102505.84;4994861;28;20328;-67
2021/11/14 09:31:29;;;;;;;42.00;15.05;;;;;;;9.06;49.62;102515.31;4994715;28;20618;-68
2021/11/14 09:33:57;;;;;;;45.00;16.02;;;;;;;8.96;49.59;102509.31;4991498;28;20050;-67
2021/11/14 09:36:30;;;;;;;47.25;15.43;;;;;;;9.14;48.94;102515.25;4993484;28;20030;-67
2021/11/14 09:39:01;;;;;;;47.88;15.25;;;;;;;9.10;48.62;102516.19;4991848;28;20178;-67
2021/11/14 09:41:26;;;;;;;36.90;13.27;;;;;;;8.79;48.99;102511.19;4992779;28;20474;-68
2021/11/14 09:43:53;;;;;;;36.33;13.25;;;;;;;8.61;49.19;102516.47;4962417;28;20045;-67
2021/11/14 09:46:20;;;;;;;39.13;13.30;;;;;;;8.63;48.72;102525.13;4992029;28;20041;-66
2021/11/14 09:48:47;;;;;;;35.60;13.30;;;;;;;8.46;48.69;102539.09;4992220;28;20494;-67
2021/11/14 09:51:14;;;;;;;31.70;12.52;;;;;;;8.60;48.24;102530.38;4991048;28;20042;-67
2021/11/14 09:53:40;;;;;;;36.90;13.10;;;;;;;8.66;48.56;102541.63;4993581;28;20042;-67
2021/11/14 09:56:07;;;;;;;31.23;12.77;;;;;;;8.82;48.33;102542.44;4980469;28;20040;-67
2021/11/14 09:58:34;;;;;;;38.47;13.38;;;;;;;8.87;48.71;102542.41;4992480;28;20050;-68
2021/11/14 10:01:00;;;;;;;30.75;12.45;;;;;;;9.07;48.01;102540.53;4978295;28;20050;-67
2021/11/14 10:03:26;;;;;;;40.08;12.80;;;;;;;9.50;47.54;102537.59;4993319;28;20113;-68
2021/11/14 10:05:52;;;;;;;34.22;12.73;;;;;;;9.57;47.20;102551.44;4994291;28;20263;-67
2021/11/14 10:08:23;;;;;;;35.78;14.18;;;;;;;9.37;46.67;102551.63;4978640;28;20549;-67
2021/11/14 10:10:54;;;;;;;41.28;13.63;;;;;;;8.98;47.64;102557.13;4994151;28;20403;-67
2021/11/14 10:13:23;;;;;;;36.92;13.30;;;;;;;9.12;47.12;102548.31;4989947;28;20045;-68
2021/11/14 10:16:05;;;;;;;38.13;13.07;;;;;;;9.27;48.02;102545.59;4989915;28;20068;-67
2021/11/14 10:18:31;;;;;;;34.08;13.30;;;;;;;9.79;47.27;102550.41;5031639;23;20422;-71
2021/11/14 10:20:59;;;;;;;37.97;13.27;;;;;;;10.07;46.29;102550.09;5015382;28;20585;-70
2021/11/14 10:23:25;;;;;;;40.33;14.93;;;;;;;10.53;44.54;102557.38;5019479;28;20058;-69
2021/11/14 10:25:54;;;;;;;32.92;13.68;;;;;;;10.40;43.95;102563.66;5000385;28;20069;-69
2021/11/14 10:28:20;;;;;;;38.75;15.50;;;;;;;10.68;43.67;102558.91;5016767;28;20255;-70
2021/11/14 10:30:47;;;;;;;37.70;14.95;;;;;;;10.76;42.79;102562.31;5022235;28;20033;-69
2021/11/14 10:33:16;;;;;;;37.08;15.40;;;;;;;11.00;42.85;102565.50;5019573;28;20366;-69
2021/11/14 10:35:45;;;;;;;38.75;16.48;;;;;;;11.08;42.64;102568.84;5021830;28;20481;-69
2021/11/14 10:38:15;;;;;;;42.35;16.95;;;;;;;11.03;43.34;102566.28;5018423;28;20471;-70
2021/11/14 10:40:44;;;;;;;40.80;16.40;;;;;;;11.34;42.34;102563.19;5021548;28;20074;-69
2021/11/14 10:43:10;;;;;;;40.53;16.90;;;;;;;11.48;41.39;102568.22;4993238;28;20068;-69
2021/11/14 10:45:39;;;;;;;34.40;15.52;;;;;;;11.56;40.84;102575.94;5004212;28;20037;-69
2021/11/14 10:48:13;;;;;;;39.03;17.38;;;;;;;11.42;41.50;102570.94;5016001;28;20041;-69
2021/11/14 10:50:43;;;;;;;36.78;16.70;;;;;;;11.24;42.23;102574.69;5018840;28;20041;-71
2021/11/14 10:53:11;;;;;;;40.65;16.65;;;;;;;11.64;42.23;102574.03;4991979;28;20096;-72
2021/11/14 10:55:42;;;;;;;43.90;17.73;;;;;;;11.93;41.28;102578.78;5019767;28;20540;-69
2021/11/14 10:58:08;;;;;;;40.30;17.17;;;;;;;11.53;41.68;102578.59;5019218;28;20041;-69
2021/11/14 11:00:35;;;;;;;42.22;16.95;;;;;;;11.44;41.71;102588.34;5018735;28;20537;-72
2021/11/14 11:03:02;;;;;;;36.90;16.98;;;;;;;11.12;42.19;102581.00;5003228;28;20045;-69
2021/11/14 11:05:29;;;;;;;40.03;17.02;;;;;;;10.83;43.11;102578.81;5019473;28;20041;-70
2021/11/14 11:08:00;;;;;;;38.75;16.90;;;;;;;10.70;43.09;102587.66;5018769;28;20521;-72
2021/11/14 11:10:31;;;;;;;42.53;18.17;;;;;;;10.58;43.15;102584.34;5020078;28;20041;-71
2021/11/14 11:12:58;;;;;;;36.90;17.67;;;;;;;10.36;43.36;102582.88;5020543;28;20038;-69
2021/11/14 11:15:23;;;;;;;42.78;16.92;;;;;;;10.40;44.40;102589.78;5020338;28;20155;-69
2021/11/14 11:17:52;;;;;;;40.00;18.20;;;;;;;10.47;43.93;102595.81;5021452;28;20167;-69
2021/11/14 11:20:23;;;;;;;40.85;17.65;;;;;;;10.59;43.42;102591.31;5020354;28;20041;-69